Time;durP1;ratioP1;P1;durP2;ratioP2;P2;SDS_P1;SDS_P2;PMS_P1;PMS_P2;Temp;Humidity;BMP_temperature;BMP_pressure;BME280_temperature;BME280_humidity;BME280_pressure;Samples;Min_cycle;Max_cycle;Signal;HPM_P1;HPM_P2
2021/12/15 07:00:17;;;;;;;8.25;6.78;;;;;;;;;;10501133;28;20393;-86
2021/12/15 07:05:18;;;;;;;8.68;6.95;;;;;;;;;;10497999;28;20115;-87
2021/12/15 07:10:20;;;;;;;;;;;;;;;;;;10499326;28;20043;-88
2021/12/15 07:15:22;;;;;;;9.73;7.88;;;;;;;;;;10497279;28;19909;-87
2021/12/15 07:20:42;;;;;;;6.85;5.90;;;;;;;;;;10497340;28;20434;-89
2021/12/15 07:25:46;;;;;;;6.30;5.53;;;;;;;;;;10500248;28;20021;-88
2021/12/15 07:30:48;;;;;;;6.57;5.88;;;;;;;;;;10495731;28;20024;-87
2021/12/15 07:35:49;;;;;;;5.63;4.80;;;;;;;;;;10496072;28;20029;-87
2021/12/15 07:40:50;;;;;;;8.13;6.65;;;;;;;;;;10500507;28;20032;-87
2021/12/15 07:45:57;;;;;;;10.77;9.32;;;;;;;;;;10508942;28;20033;-87
2021/12/15 07:50:59;;;;;;;6.25;4.90;;;;;;;;;;10496637;28;20032;-87
2021/12/15 07:56:00;;;;;;;6.43;4.72;;;;;;;;;;10498017;28;20052;-87
2021/12/15 08:01:03;;;;;;;9.45;8.30;;;;;;;;;;10477346;28;20041;-84
2021/12/15 08:06:05;;;;;;;6.97;4.65;;;;;;;;;;10478825;28;20025;-82
2021/12/15 08:11:06;;;;;;;7.05;6.22;;;;;;;;;;10478267;28;20156;-85
2021/12/15 08:16:07;;;;;;;8.40;7.40;;;;;;;;;;10476792;28;20159;-83
2021/12/15 08:21:09;;;;;;;7.78;6.47;;;;;;;;;;10472893;28;20063;-84
2021/12/15 08:26:10;;;;;;;7.70;6.65;;;;;;;;;;10473282;28;20042;-84
2021/12/15 08:31:12;;;;;;;9.65;7.05;;;;;;;;;;10473521;28;20021;-83
2021/12/15 08:36:34;;;;;;;9.13;7.38;;;;;;;;;;10473502;28;20163;-85
2021/12/15 08:41:46;;;;;;;9.20;7.57;;;;;;;;;;10481719;28;20084;-83
2021/12/15 08:52:30;;;;;;;9.27;7.90;;;;;;;;;;10487978;28;20072;-82
2021/12/15 08:57:41;;;;;;;10.60;8.05;;;;;;;;;;10502313;28;20037;-83
2021/12/15 09:03:21;;;;;;;9.10;7.93;;;;;;;;;;10483839;28;20024;-84
2021/12/15 09:08:36;;;;;;;12.20;9.93;;;;;;;;;;10504172;28;20028;-81
2021/12/15 09:19:38;;;;;;;10.77;8.48;;;;;;;;;;10505956;28;20049;-82
2021/12/15 09:25:35;;;;;;;11.15;8.85;;;;;;;;;;10537638;28;20024;-82
2021/12/15 09:30:57;;;;;;;10.57;9.13;;;;;;;;;;10364568;28;20041;-83
2021/12/15 09:36:02;;;;;;;11.48;9.30;;;;;;;;;;10375905;28;20116;-82
2021/12/15 09:41:21;;;;;;;8.88;7.93;;;;;;;;;;10506375;28;20021;-88
2021/12/15 09:47:06;;;;;;;9.52;8.38;;;;;;;;;;10503040;28;20077;-84
2021/12/15 10:02:58;;;;;;;10.70;9.48;;;;;;;;;;10478484;28;20049;-83
2021/12/15 10:18:46;;;;;;;9.32;8.43;;;;;;;;;;10481083;28;20033;-84
2021/12/15 10:23:49;;;;;;;10.02;8.43;;;;;;;;;;10475486;28;20020;-84
2021/12/15 10:28:52;;;;;;;10.55;9.45;;;;;;;;;;10482625;28;20021;-83
2021/12/15 10:33:55;;;;;;;9.50;8.23;;;;;;;;;;10497640;28;20100;-85
2021/12/15 10:39:01;;;;;;;10.27;8.30;;;;;;;;;;10484779;28;20029;-86
2021/12/15 10:44:14;;;;;;;11.63;8.63;;;;;;;;;;10479450;28;20017;-84
2021/12/15 10:49:17;;;;;;;11.32;8.40;;;;;;;;;;10477091;28;20040;-83
2021/12/15 10:54:21;;;;;;;11.05;8.60;;;;;;;;;;10473249;28;20120;-84
2021/12/15 10:59:23;;;;;;;11.90;9.10;;;;;;;;;;10485502;28;20029;-84
2021/12/15 11:04:27;;;;;;;11.38;8.60;;;;;;;;;;10481645;28;20040;-85
2021/12/15 11:09:31;;;;;;;10.25;9.07;;;;;;;;;;10477305;28;20075;-83
2021/12/15 11:14:34;;;;;;;10.32;8.32;;;;;;;;;;10475967;28;20033;-83
2021/12/15 11:19:49;;;;;;;11.07;8.82;;;;;;;;;;10475443;28;20075;-84
2021/12/15 11:24:50;;;;;;;12.10;9.75;;;;;;;;;;10482457;28;20043;-83
2021/12/15 11:29:51;;;;;;;10.38;9.27;;;;;;;;;;10477922;28;20552;-84
2021/12/15 11:35:06;;;;;;;11.50;9.88;;;;;;;;;;10484962;28;20071;-83
2021/12/15 11:40:08;;;;;;;13.02;10.02;;;;;;;;;;10496164;28;20029;-84
2021/12/15 11:45:10;;;;;;;11.93;9.57;;;;;;;;;;10488560;28;20044;-85
2021/12/15 11:50:15;;;;;;;12.02;10.43;;;;;;;;;;10482693;28;20060;-83
2021/12/15 11:55:24;;;;;;;11.98;10.10;;;;;;;;;;10485311;28;20555;-85
2021/12/15 12:00:27;;;;;;;13.15;10.60;;;;;;;;;;10484177;28;20101;-84
2021/12/15 12:05:32;;;;;;;13.25;10.60;;;;;;;;;;10483858;28;20068;-84
2021/12/15 12:10:42;;;;;;;12.98;11.57;;;;;;;;;;10484256;28;20033;-84
2021/12/15 12:15:43;;;;;;;;;;;;;;;;;;10482330;28;20029;-82
2021/12/15 12:20:48;;;;;;;11.07;9.90;;;;;;;;;;10494337;28;19979;-87
2021/12/15 12:25:51;;;;;;;11.38;10.18;;;;;;;;;;10492730;28;20044;-81
2021/12/15 12:30:54;;;;;;;11.82;10.63;;;;;;;;;;10490448;28;20052;-83
2021/12/15 12:36:02;;;;;;;12.18;10.10;;;;;;;;;;10490962;28;20060;-84
2021/12/15 12:41:13;;;;;;;12.80;10.65;;;;;;;;;;10496159;28;20075;-84
2021/12/15 12:46:21;;;;;;;12.32;10.13;;;;;;;;;;10483436;28;20101;-86
2021/12/15 13:02:10;;;;;;;14.43;11.90;;;;;;;;;;10486034;28;20037;-84
2021/12/15 13:07:11;;;;;;;13.35;10.25;;;;;;;;;;10484429;28;20013;-81
2021/12/15 13:12:21;;;;;;;13.20;11.65;;;;;;;;;;10489337;28;20056;-85
2021/12/15 13:17:25;;;;;;;12.95;10.93;;;;;;;;;;10492837;28;20065;-86
2021/12/15 13:33:39;;;;;;;10.30;8.65;;;;;;;;;;10499332;28;20052;-85
2021/12/15 13:38:43;;;;;;;12.50;10.82;;;;;;;;;;10500951;28;20047;-85
2021/12/15 13:44:04;;;;;;;14.80;11.93;;;;;;;;;;10504017;28;20067;-85
2021/12/15 13:49:17;;;;;;;20.25;14.73;;;;;;;;;;10500743;28;20033;-84
2021/12/15 13:54:34;;;;;;;21.42;17.05;;;;;;;;;;10496438;28;20056;-86
2021/12/15 13:59:53;;;;;;;16.75;13.80;;;;;;;;;;10525935;22;20049;-85
2021/12/15 14:04:58;;;;;;;20.58;16.42;;;;;;;;;;10291603;28;20027;-85
2021/12/15 14:10:18;;;;;;;18.88;14.13;;;;;;;;;;10275870;29;20023;-86
2021/12/15 14:15:25;;;;;;;24.33;17.92;;;;;;;;;;10267385;28;20106;-86
2021/12/15 14:20:27;;;;;;;15.57;13.38;;;;;;;;;;10267952;28;20019;-86
2021/12/15 14:25:28;;;;;;;12.32;10.27;;;;;;;;;;10267620;28;20035;-87
2021/12/15 14:30:29;;;;;;;12.65;10.32;;;;;;;;;;10267497;28;20027;-83
2021/12/15 14:35:30;;;;;;;12.10;10.80;;;;;;;;;;10265601;28;20091;-84
2021/12/15 14:40:32;;;;;;;13.27;10.80;;;;;;;;;;10269016;28;20023;-83
2021/12/15 14:45:33;;;;;;;17.73;15.23;;;;;;;;;;10266308;28;20038;-86
2021/12/15 14:50:37;;;;;;;13.18;11.52;;;;;;;;;;10272103;28;20126;-85
2021/12/15 14:55:41;;;;;;;9.48;7.90;;;;;;;;;;10273377;28;20028;-80
2021/12/15 15:00:42;;;;;;;12.95;9.82;;;;;;;;;;10264032;28;20116;-79
2021/12/15 15:05:50;;;;;;;10.82;9.50;;;;;;;;;;10265544;28;20089;-80
2021/12/15 15:10:51;;;;;;;12.50;11.20;;;;;;;;;;10269989;28;20054;-78
2021/12/15 15:16:05;;;;;;;14.70;10.77;;;;;;;;;;10276608;28;20033;-79
2021/12/15 15:21:11;;;;;;;13.60;10.95;;;;;;;;;;10269764;28;20102;-80
2021/12/15 15:26:14;;;;;;;13.15;9.98;;;;;;;;;;10266515;28;20027;-82
2021/12/15 15:31:16;;;;;;;13.40;10.18;;;;;;;;;;10270071;28;20055;-80
2021/12/15 15:36:19;;;;;;;12.48;9.85;;;;;;;;;;10268492;28;20057;-80
2021/12/15 15:41:22;;;;;;;13.15;9.90;;;;;;;;;;10268132;28;20031;-82
2021/12/15 15:46:25;;;;;;;12.25;9.80;;;;;;;;;;10269581;28;20177;-84
2021/12/15 15:51:36;;;;;;;12.55;9.43;;;;;;;;;;10272739;28;20136;-84
2021/12/15 15:56:39;;;;;;;13.23;10.00;;;;;;;;;;10272112;28;20516;-87
2021/12/15 16:01:42;;;;;;;12.10;9.50;;;;;;;;;;10276774;28;20027;-83
2021/12/15 16:06:44;;;;;;;13.82;10.85;;;;;;;;;;10267176;28;20023;-84
2021/12/15 16:11:47;;;;;;;13.77;10.68;;;;;;;;;;10265431;28;20470;-86
2021/12/15 16:17:08;;;;;;;13.32;10.35;;;;;;;;;;10270847;28;20031;-85
2021/12/15 16:27:38;;;;;;;17.30;9.70;;;;;;;;;;10277997;29;20035;-86
2021/12/15 16:32:41;;;;;;;14.93;12.07;;;;;;;;;;10284994;28;20113;-85
2021/12/15 16:37:42;;;;;;;12.25;9.65;;;;;;;;;;10285480;28;20140;-84
2021/12/15 16:43:02;;;;;;;11.50;9.60;;;;;;;;;;10283039;28;20062;-85
2021/12/15 16:48:36;;;;;;;9.85;8.05;;;;;;;;;;10268277;28;20050;-86
2021/12/15 16:53:54;;;;;;;12.35;8.95;;;;;;;;;;10264584;28;20044;-85
2021/12/15 16:59:10;;;;;;;12.57;8.80;;;;;;;;;;10271715;28;20059;-87
2021/12/15 17:04:12;;;;;;;11.48;9.07;;;;;;;;;;10278663;28;20033;-86
2021/12/15 17:09:24;;;;;;;11.90;9.13;;;;;;;;;;10276314;28;20035;-87
2021/12/15 17:14:39;;;;;;;10.90;8.95;;;;;;;;;;10280144;28;20031;-86
2021/12/15 17:25:26;;;;;;;12.52;9.63;;;;;;;;;;10295690;28;20020;-90
2021/12/15 17:36:35;;;;;;;12.18;10.00;;;;;;;;;;10275838;28;20035;-89
2021/12/15 17:41:38;;;;;;;10.88;8.35;;;;;;;;;;10262785;28;20028;-88
2021/12/15 17:47:10;;;;;;;11.40;9.68;;;;;;;;;;10281117;28;20031;-88
2021/12/15 17:52:14;;;;;;;13.48;11.70;;;;;;;;;;10263302;28;20047;-89
2021/12/15 17:57:15;;;;;;;13.45;10.00;;;;;;;;;;10258017;28;20031;-89
2021/12/15 18:02:17;;;;;;;11.35;9.88;;;;;;;;;;10259900;28;20113;-89
2021/12/15 18:07:19;;;;;;;10.52;9.25;;;;;;;;;;10258636;28;20055;-89
2021/12/15 18:12:21;;;;;;;10.48;9.02;;;;;;;;;;10258782;28;20035;-89
2021/12/15 18:17:22;;;;;;;8.90;7.97;;;;;;;;;;10258564;28;20031;-89
2021/12/15 18:22:24;;;;;;;9.40;8.40;;;;;;;;;;10256971;28;20533;-89
2021/12/15 18:27:25;;;;;;;14.48;11.93;;;;;;;;;;10259714;28;20481;-90
2021/12/15 18:32:26;;;;;;;16.05;14.20;;;;;;;;;;10261343;28;20031;-89
2021/12/15 18:37:29;;;;;;;16.17;12.25;;;;;;;;;;10257076;28;20039;-90
2021/12/15 18:42:30;;;;;;;12.60;11.25;;;;;;;;;;10265392;28;20034;-90
2021/12/15 18:47:31;;;;;;;18.40;15.63;;;;;;;;;;10270600;28;20027;-90
2021/12/15 18:52:32;;;;;;;15.45;13.05;;;;;;;;;;10262960;28;20091;-90
2021/12/15 18:57:33;;;;;;;8.98;7.85;;;;;;;;;;10258155;28;20096;-90
2021/12/15 19:02:34;;;;;;;9.95;8.55;;;;;;;;;;10256350;28;20038;-90
2021/12/15 19:07:36;;;;;;;12.07;10.45;;;;;;;;;;10257733;28;20099;-90
2021/12/15 19:12:37;;;;;;;15.63;12.93;;;;;;;;;;10256902;28;20027;-90
2021/12/15 19:17:38;;;;;;;11.85;10.55;;;;;;;;;;10257708;28;20089;-89
2021/12/15 19:28:36;;;;;;;10.80;9.70;;;;;;;;;;10256515;29;20027;-89
2021/12/15 19:33:38;;;;;;;14.68;12.35;;;;;;;;;;10266375;28;20425;-90
2021/12/15 19:38:39;;;;;;;13.35;10.80;;;;;;;;;;10270077;28;20031;-90
2021/12/15 19:43:44;;;;;;;10.15;8.77;;;;;;;;;;10268408;28;20090;-90
2021/12/15 19:48:46;;;;;;;17.45;14.77;;;;;;;;;;10266929;28;20103;-90
2021/12/15 19:53:47;;;;;;;8.90;7.32;;;;;;;;;;10271961;28;20062;-90
